createdAt,value
2017-09-26T00:01:31.305Z,8.88
2017-09-26T00:04:07.401Z,8.07
2017-09-26T00:06:38.236Z,8.40
2017-09-26T00:11:41.580Z,8.77
2017-09-26T00:14:13.115Z,7.70
2017-09-26T00:16:42.733Z,8.30
2017-09-26T00:19:12.040Z,8.65
2017-09-26T00:21:43.179Z,8.82
2017-09-26T00:24:12.993Z,7.90
2017-09-26T00:26:41.402Z,8.15
2017-09-26T00:29:09.651Z,8.38
2017-09-26T00:31:37.900Z,7.85
2017-09-26T00:34:06.197Z,8.48
2017-09-26T00:36:35.244Z,8.80
2017-09-26T00:39:05.116Z,8.52
2017-09-26T00:41:33.471Z,8.15
2017-09-26T00:44:02.476Z,8.93
2017-09-26T00:46:31.613Z,7.97
2017-09-26T00:48:59.899Z,9.15
2017-09-26T00:51:28.164Z,8.35
2017-09-26T00:53:57.421Z,8.90
2017-09-26T00:56:26.457Z,8.85
2017-09-26T00:58:54.744Z,8.70
2017-09-26T01:01:23.037Z,9.43
2017-09-26T01:03:57.487Z,7.47
2017-09-26T01:06:26.387Z,8.57
2017-09-26T01:08:54.669Z,8.75
2017-09-26T01:11:22.975Z,8.77
2017-09-26T01:13:51.253Z,8.38
2017-09-26T01:16:21.618Z,8.52
2017-09-26T01:18:50.014Z,8.70
2017-09-26T01:21:18.431Z,8.55
2017-09-26T01:23:46.847Z,9.02
2017-09-26T01:26:17.785Z,8.73
2017-09-26T01:28:47.005Z,9.00
2017-09-26T01:31:15.408Z,9.15
2017-09-26T01:33:43.773Z,8.90
2017-09-26T01:36:12.967Z,8.05
2017-09-26T01:38:41.182Z,8.20
2017-09-26T01:41:21.289Z,8.68
2017-09-26T01:43:49.592Z,8.43
2017-09-26T01:46:17.843Z,8.60
2017-09-26T01:48:46.099Z,8.30
2017-09-26T01:51:15.837Z,8.70
2017-09-26T01:53:45.310Z,8.90
2017-09-26T01:56:23.519Z,8.40
2017-09-26T01:58:53.013Z,8.80
2017-09-26T02:01:22.397Z,8.07
2017-09-26T02:03:50.892Z,8.75
2017-09-26T02:06:19.192Z,8.63
2017-09-26T02:08:47.465Z,9.60
2017-09-26T02:11:15.861Z,9.20
2017-09-26T02:13:44.109Z,9.35
2017-09-26T02:16:13.144Z,8.63
2017-09-26T02:18:42.536Z,9.10
2017-09-26T02:21:11.646Z,8.10
2017-09-26T02:23:40.609Z,10.05
2017-09-26T02:26:08.932Z,9.30
2017-09-26T02:28:37.252Z,9.07
2017-09-26T02:31:05.505Z,8.25
2017-09-26T02:33:33.747Z,8.25
2017-09-26T02:36:02.467Z,9.25
2017-09-26T02:38:31.424Z,8.77
2017-09-26T02:40:59.661Z,9.45
2017-09-26T02:43:27.904Z,9.60
2017-09-26T02:45:56.144Z,9.40
2017-09-26T02:48:24.345Z,9.20
2017-09-26T02:50:52.556Z,9.05
2017-09-26T02:53:21.178Z,9.57
2017-09-26T02:55:49.358Z,10.00
2017-09-26T02:58:17.562Z,9.57
2017-09-26T03:00:46.907Z,9.55
2017-09-26T03:03:15.127Z,9.35
2017-09-26T03:05:43.345Z,9.90
2017-09-26T03:08:11.909Z,9.95
2017-09-26T03:10:40.911Z,9.23
2017-09-26T03:13:09.193Z,9.40
2017-09-26T03:15:37.428Z,9.70
2017-09-26T03:18:05.626Z,9.75
2017-09-26T03:20:34.574Z,9.98
2017-09-26T03:23:02.786Z,9.98
2017-09-26T03:25:32.847Z,9.82
2017-09-26T03:28:01.099Z,10.23
2017-09-26T03:30:29.392Z,9.85
2017-09-26T03:32:57.623Z,10.45
2017-09-26T03:35:26.632Z,10.48
2017-09-26T03:37:54.978Z,10.50
2017-09-26T03:40:23.945Z,11.48
2017-09-26T03:42:52.185Z,10.60
2017-09-26T03:45:20.443Z,11.93
2017-09-26T03:47:48.734Z,10.57
2017-09-26T03:50:17.018Z,10.90
2017-09-26T03:52:45.627Z,11.52
2017-09-26T03:55:13.830Z,12.60
2017-09-26T03:57:42.850Z,11.45
2017-09-26T04:00:11.125Z,11.88
2017-09-26T04:02:39.347Z,11.90
2017-09-26T04:05:07.618Z,11.90
2017-09-26T04:07:35.840Z,11.80
2017-09-26T04:10:04.411Z,11.85
2017-09-26T04:12:33.373Z,11.60
2017-09-26T04:15:01.584Z,12.65
2017-09-26T04:17:30.601Z,10.35
2017-09-26T04:19:58.818Z,12.45
2017-09-26T04:22:27.843Z,10.65
2017-09-26T04:24:56.071Z,11.20
2017-09-26T04:27:24.757Z,13.00
2017-09-26T04:29:52.983Z,10.68
2017-09-26T04:32:21.236Z,11.20
2017-09-26T04:34:50.257Z,12.15
2017-09-26T04:37:18.504Z,11.07
2017-09-26T04:39:47.523Z,12.23
2017-09-26T04:42:15.775Z,11.98
2017-09-26T04:44:44.776Z,11.90
2017-09-26T04:47:12.988Z,12.07
2017-09-26T04:49:41.221Z,13.98
2017-09-26T04:52:09.468Z,13.23
2017-09-26T04:54:38.784Z,13.70
2017-09-26T04:57:07.810Z,12.57
2017-09-26T04:59:36.142Z,12.60
2017-09-26T05:02:04.356Z,12.57
2017-09-26T05:04:32.575Z,13.68
2017-09-26T05:07:00.820Z,12.80
2017-09-26T05:09:29.531Z,12.63
2017-09-26T05:11:57.803Z,12.52
2017-09-26T05:14:26.041Z,11.60
2017-09-26T05:16:54.255Z,13.23
2017-09-26T05:19:22.506Z,13.05
2017-09-26T05:21:51.223Z,13.10
2017-09-26T05:24:19.506Z,13.43
2017-09-26T05:26:47.748Z,13.23
2017-09-26T05:29:15.989Z,13.10
2017-09-26T05:31:44.963Z,15.18
2017-09-26T05:34:14.284Z,13.93
2017-09-26T05:36:42.647Z,13.62
2017-09-26T05:39:11.680Z,13.90
2017-09-26T05:41:39.967Z,13.88
2017-09-26T05:44:08.224Z,14.50
2017-09-26T05:46:36.457Z,14.85
2017-09-26T05:49:04.667Z,14.45
2017-09-26T05:51:32.877Z,14.45
2017-09-26T05:54:01.155Z,14.90
2017-09-26T05:56:29.405Z,13.07
2017-09-26T05:58:57.703Z,14.60
2017-09-26T06:01:26.383Z,15.25
2017-09-26T06:03:54.592Z,14.73
2017-09-26T06:06:22.821Z,14.48
2017-09-26T06:08:51.032Z,15.68
2017-09-26T06:11:19.251Z,15.77
2017-09-26T06:13:47.448Z,15.45
2017-09-26T06:16:15.634Z,15.77
2017-09-26T06:18:44.296Z,15.30
2017-09-26T06:21:12.491Z,15.52
2017-09-26T06:23:40.717Z,14.93
2017-09-26T06:26:08.911Z,15.27
2017-09-26T06:28:37.356Z,15.20
2017-09-26T06:31:06.338Z,16.35
2017-09-26T06:33:38.029Z,15.75
2017-09-26T06:36:06.303Z,15.30
2017-09-26T06:38:34.517Z,16.10
2017-09-26T06:41:02.720Z,16.55
2017-09-26T06:43:31.712Z,16.08
2017-09-26T06:46:00.703Z,16.35
2017-09-26T06:48:29.695Z,16.85
2017-09-26T06:50:57.948Z,17.10
2017-09-26T06:53:26.246Z,16.52
2017-09-26T06:55:55.261Z,16.95
2017-09-26T06:58:24.230Z,18.20
2017-09-26T07:00:53.220Z,15.35
2017-09-26T07:03:21.530Z,17.95
2017-09-26T07:05:49.736Z,16.70
2017-09-26T07:08:18.005Z,17.77
2017-09-26T07:10:48.873Z,17.65
2017-09-26T07:13:18.002Z,17.10
2017-09-26T07:15:46.273Z,17.83
2017-09-26T07:18:14.498Z,17.50
2017-09-26T07:20:42.789Z,17.27
2017-09-26T07:23:11.040Z,17.67
2017-09-26T07:25:39.286Z,18.15
2017-09-26T07:28:07.603Z,18.10
2017-09-26T07:30:35.854Z,18.15
2017-09-26T07:33:04.102Z,19.42
2017-09-26T07:35:32.380Z,18.85
2017-09-26T07:38:00.664Z,17.77
2017-09-26T07:40:29.211Z,19.40
2017-09-26T07:42:57.430Z,17.40
2017-09-26T07:45:25.681Z,19.37
2017-09-26T07:47:53.921Z,18.83
2017-09-26T07:50:22.907Z,19.25
2017-09-26T07:52:51.928Z,19.95
2017-09-26T07:55:20.243Z,20.12
2017-09-26T07:57:48.960Z,18.08
2017-09-26T08:00:17.236Z,20.10
2017-09-26T08:02:46.247Z,20.08
2017-09-26T08:05:15.685Z,20.20
2017-09-26T08:07:44.248Z,19.50
2017-09-26T08:10:12.466Z,19.85
2017-09-26T08:12:40.666Z,18.92
2017-09-26T08:15:09.654Z,18.90
2017-09-26T08:17:37.839Z,19.65
2017-09-26T08:20:06.820Z,19.42
2017-09-26T08:22:35.026Z,19.98
2017-09-26T08:25:03.579Z,20.58
2017-09-26T08:27:31.771Z,21.40
2017-09-26T08:30:00.739Z,20.20
2017-09-26T08:32:28.956Z,21.35
2017-09-26T08:34:57.174Z,20.73
2017-09-26T08:37:25.849Z,19.73
2017-09-26T08:39:54.067Z,21.92
2017-09-26T08:42:23.023Z,20.50
2017-09-26T08:44:51.282Z,20.37
2017-09-26T08:47:19.477Z,20.85
2017-09-26T08:49:47.737Z,21.08
2017-09-26T08:52:15.974Z,22.67
2017-09-26T08:54:44.163Z,22.35
2017-09-26T08:57:12.408Z,21.55
2017-09-26T08:59:41.534Z,22.62
2017-09-26T09:02:09.756Z,21.08
2017-09-26T09:04:37.976Z,21.12
2017-09-26T09:07:06.240Z,21.73
2017-09-26T09:09:34.441Z,21.02
2017-09-26T09:12:02.644Z,21.75
2017-09-26T09:14:30.829Z,20.75
2017-09-26T09:16:59.040Z,21.23
2017-09-26T09:19:27.231Z,20.23
2017-09-26T09:21:55.443Z,20.45
2017-09-26T09:24:23.670Z,21.20
2017-09-26T09:26:51.953Z,21.10
2017-09-26T09:29:20.235Z,22.60
2017-09-26T09:31:48.418Z,21.70
2017-09-26T09:34:16.677Z,21.67
2017-09-26T09:36:44.878Z,21.20
2017-09-26T09:39:13.122Z,19.35
2017-09-26T09:41:41.350Z,23.92
2017-09-26T09:44:10.306Z,22.87
2017-09-26T09:46:38.483Z,22.55
2017-09-26T09:49:06.762Z,20.88
2017-09-26T09:51:35.019Z,19.98
2017-09-26T09:54:03.216Z,22.55
2017-09-26T09:56:31.424Z,22.73
2017-09-26T09:59:00.409Z,22.30
2017-09-26T10:01:29.417Z,22.80
2017-09-26T10:03:57.643Z,21.80
2017-09-26T10:06:25.892Z,21.75
2017-09-26T10:08:54.191Z,21.65
2017-09-26T10:11:22.530Z,21.35
2017-09-26T10:13:50.757Z,22.87
2017-09-26T10:16:19.003Z,22.35
2017-09-26T10:18:47.284Z,21.27
2017-09-26T10:21:15.539Z,20.75
2017-09-26T10:23:43.749Z,20.98
2017-09-26T10:26:11.956Z,22.37
2017-09-26T10:28:40.223Z,21.30
2017-09-26T10:31:08.440Z,21.83
2017-09-26T10:33:36.675Z,21.15
2017-09-26T10:36:04.904Z,21.92
2017-09-26T10:41:14.837Z,22.48
2017-09-26T10:43:43.816Z,20.77
2017-09-26T10:46:12.026Z,20.88
2017-09-26T10:48:40.284Z,22.80
2017-09-26T10:51:08.551Z,22.20
2017-09-26T10:53:36.840Z,21.33
2017-09-26T10:56:05.094Z,24.52
2017-09-26T10:58:33.368Z,22.30
2017-09-26T11:01:01.665Z,22.00
2017-09-26T11:03:29.917Z,21.62
2017-09-26T11:05:58.160Z,20.90
2017-09-26T11:08:26.424Z,20.98
2017-09-26T11:10:55.107Z,22.95
2017-09-26T11:13:24.165Z,22.73
2017-09-26T11:15:52.438Z,21.20
2017-09-26T11:18:21.489Z,22.70
2017-09-26T11:20:51.040Z,20.52
2017-09-26T11:23:19.323Z,21.98
2017-09-26T11:25:47.576Z,23.30
2017-09-26T11:28:15.809Z,20.98
2017-09-26T11:30:44.859Z,23.40
2017-09-26T11:33:13.072Z,21.98
2017-09-26T11:35:41.343Z,22.02
2017-09-26T11:38:09.601Z,21.40
2017-09-26T11:40:37.883Z,22.40
2017-09-26T11:43:06.094Z,22.67
2017-09-26T11:45:35.108Z,24.83
2017-09-26T11:48:03.374Z,21.87
2017-09-26T11:50:31.687Z,23.52
2017-09-26T11:52:59.906Z,24.77
2017-09-26T11:55:28.958Z,21.75
2017-09-26T11:57:57.224Z,22.05
2017-09-26T12:00:25.441Z,24.37
2017-09-26T12:02:53.695Z,23.60
2017-09-26T12:05:22.015Z,21.15
2017-09-26T12:07:50.245Z,23.35
2017-09-26T12:10:18.502Z,22.73
2017-09-26T12:12:52.352Z,21.98
2017-09-26T12:15:20.607Z,20.73
2017-09-26T12:17:48.859Z,22.42
2017-09-26T12:20:17.142Z,22.60
2017-09-26T12:22:45.577Z,22.52
2017-09-26T12:25:13.868Z,21.58
2017-09-26T12:27:42.149Z,22.37
2017-09-26T12:30:10.618Z,19.83
2017-09-26T12:32:38.949Z,20.42
2017-09-26T12:35:07.222Z,20.92
2017-09-26T12:37:35.536Z,21.75
2017-09-26T12:40:03.785Z,20.20
2017-09-26T12:42:32.795Z,20.83
2017-09-26T12:45:01.052Z,20.65
2017-09-26T12:47:30.132Z,21.90
2017-09-26T12:49:58.421Z,20.48
2017-09-26T12:52:26.720Z,21.25
2017-09-26T12:54:55.034Z,20.95
2017-09-26T12:57:23.277Z,19.90
2017-09-26T12:59:51.546Z,20.70
2017-09-26T13:02:20.732Z,19.65
2017-09-26T13:04:49.049Z,22.37
2017-09-26T13:07:17.329Z,20.33
2017-09-26T13:09:45.600Z,20.02
2017-09-26T13:12:13.861Z,19.90
2017-09-26T13:14:42.106Z,19.30
2017-09-26T13:17:11.168Z,19.55
2017-09-26T13:19:39.368Z,19.48
2017-09-26T13:22:08.383Z,19.50
2017-09-26T13:24:36.610Z,20.83
2017-09-26T13:27:04.930Z,18.95
2017-09-26T13:29:33.172Z,20.42
2017-09-26T13:32:01.439Z,19.85
2017-09-26T13:34:29.704Z,19.25
2017-09-26T13:36:57.944Z,19.60
2017-09-26T13:39:26.288Z,20.02
2017-09-26T13:41:55.360Z,19.20
2017-09-26T13:44:23.715Z,19.70
2017-09-26T13:46:51.970Z,19.25
2017-09-26T13:49:20.238Z,18.42
2017-09-26T13:51:48.532Z,18.10
2017-09-26T13:54:16.793Z,19.23
2017-09-26T13:56:45.018Z,18.20
2017-09-26T13:59:13.223Z,20.45
2017-09-26T14:01:41.469Z,20.65
2017-09-26T14:04:09.738Z,19.45
2017-09-26T14:06:37.951Z,20.15
2017-09-26T14:09:06.180Z,19.65
2017-09-26T14:11:35.249Z,20.20
2017-09-26T14:14:03.577Z,20.60
2017-09-26T14:16:32.732Z,20.52
2017-09-26T14:19:01.153Z,19.90
2017-09-26T14:21:30.160Z,20.02
2017-09-26T14:23:58.442Z,19.55
2017-09-26T14:26:27.685Z,20.20
2017-09-26T14:28:56.072Z,19.70
2017-09-26T14:31:24.375Z,20.37
2017-09-26T14:33:54.494Z,20.27
2017-09-26T14:36:23.252Z,19.60
2017-09-26T14:38:52.523Z,19.90
2017-09-26T14:41:20.920Z,19.42
2017-09-26T14:43:50.001Z,21.00
2017-09-26T14:46:23.126Z,18.65
2017-09-26T14:48:51.481Z,18.37
2017-09-26T14:51:20.522Z,18.00
2017-09-26T14:53:49.363Z,18.50
2017-09-26T14:56:18.447Z,17.80
2017-09-26T14:58:46.919Z,18.30
2017-09-26T15:01:15.194Z,19.98
2017-09-26T15:03:43.476Z,19.37
2017-09-26T15:06:11.757Z,18.62
2017-09-26T15:08:48.087Z,18.65
2017-09-26T15:11:16.918Z,18.48
2017-09-26T15:13:47.866Z,20.25
2017-09-26T15:16:19.478Z,19.27
2017-09-26T15:18:48.534Z,18.15
2017-09-26T15:21:18.690Z,19.33
2017-09-26T15:23:46.993Z,19.75
2017-09-26T15:26:15.194Z,20.85
2017-09-26T15:28:46.365Z,20.40
2017-09-26T15:31:14.759Z,18.50
2017-09-26T15:33:47.506Z,18.80
2017-09-26T15:36:16.523Z,18.25
2017-09-26T15:38:44.885Z,18.17
2017-09-26T15:41:13.232Z,18.65
2017-09-26T15:43:50.283Z,17.55
2017-09-26T15:46:18.627Z,18.85
2017-09-26T15:48:46.958Z,18.62
2017-09-26T15:51:21.347Z,18.75
2017-09-26T15:53:52.287Z,20.02
2017-09-26T15:56:20.640Z,18.20
2017-09-26T15:58:48.956Z,18.67
2017-09-26T16:01:17.266Z,20.52
2017-09-26T16:03:46.589Z,20.50
2017-09-26T16:06:14.879Z,21.67
2017-09-26T16:08:43.139Z,22.52
2017-09-26T16:11:11.388Z,18.70
2017-09-26T16:13:39.663Z,22.48
2017-09-26T16:16:13.129Z,21.25
2017-09-26T16:18:46.221Z,20.98
2017-09-26T16:21:19.730Z,19.10
2017-09-26T16:23:50.098Z,20.08
2017-09-26T16:26:21.899Z,20.95
2017-09-26T16:28:50.410Z,19.87
2017-09-26T16:33:55.674Z,20.95
2017-09-26T16:36:24.029Z,21.52
2017-09-26T16:38:52.249Z,22.02
2017-09-26T16:41:20.524Z,19.80
2017-09-26T16:43:49.656Z,21.80
2017-09-26T16:46:17.886Z,22.15
2017-09-26T16:48:46.127Z,20.58
2017-09-26T16:51:14.382Z,20.70
2017-09-26T16:53:42.636Z,21.05
2017-09-26T16:56:10.870Z,20.45
2017-09-26T16:58:39.859Z,19.85
2017-09-26T17:01:08.916Z,19.55
2017-09-26T17:03:37.503Z,21.77
2017-09-26T17:06:05.748Z,21.25
2017-09-26T17:08:33.958Z,22.50
2017-09-26T17:11:02.230Z,21.67
2017-09-26T17:13:30.499Z,21.30
2017-09-26T17:15:58.741Z,19.95
2017-09-26T17:18:26.978Z,21.52
2017-09-26T17:20:56.014Z,19.95
2017-09-26T17:23:24.313Z,22.37
2017-09-26T17:25:52.574Z,20.52
2017-09-26T17:28:22.056Z,20.70
2017-09-26T17:30:50.327Z,22.17
2017-09-26T17:33:18.625Z,22.15
2017-09-26T17:35:46.888Z,21.00
2017-09-26T17:38:15.245Z,20.83
2017-09-26T17:40:44.314Z,22.50
2017-09-26T17:43:12.528Z,22.05
2017-09-26T17:45:40.764Z,20.62
2017-09-26T17:48:09.038Z,20.58
2017-09-26T17:50:37.344Z,21.27
2017-09-26T17:53:05.761Z,21.00
2017-09-26T17:55:34.034Z,20.70
2017-09-26T17:58:02.268Z,20.05
2017-09-26T18:00:30.516Z,19.12
2017-09-26T18:02:58.762Z,21.35
2017-09-26T18:05:27.107Z,19.65
2017-09-26T18:07:55.434Z,22.23
2017-09-26T18:10:24.210Z,21.48
2017-09-26T18:12:52.648Z,18.85
2017-09-26T18:15:20.987Z,20.17
2017-09-26T18:17:49.271Z,21.42
2017-09-26T18:20:17.523Z,21.87
2017-09-26T18:22:45.805Z,20.55
2017-09-26T18:25:14.042Z,19.83
2017-09-26T18:27:42.295Z,19.50
2017-09-26T18:30:10.548Z,18.73
2017-09-26T18:32:38.800Z,19.02
2017-09-26T18:35:07.055Z,20.00
2017-09-26T18:37:35.391Z,21.02
2017-09-26T18:40:04.396Z,20.80
2017-09-26T18:42:32.617Z,19.62
2017-09-26T18:45:00.889Z,21.58
2017-09-26T18:47:29.176Z,21.90
2017-09-26T18:49:57.456Z,20.33
2017-09-26T18:52:25.871Z,21.23
2017-09-26T18:54:54.175Z,19.10
2017-09-26T18:57:22.563Z,21.08
2017-09-26T18:59:50.917Z,19.83
2017-09-26T19:02:19.243Z,20.12
2017-09-26T19:04:47.595Z,19.73
2017-09-26T19:07:15.954Z,19.48
2017-09-26T19:09:49.008Z,21.33
2017-09-26T19:12:19.053Z,20.12
2017-09-26T19:14:47.597Z,19.65
2017-09-26T19:17:16.053Z,20.17
2017-09-26T19:19:45.201Z,19.40
2017-09-26T19:22:14.459Z,21.10
2017-09-26T19:24:42.791Z,20.62
2017-09-26T19:27:11.758Z,19.45
2017-09-26T19:29:43.645Z,20.58
2017-09-26T19:32:12.748Z,21.40
2017-09-26T19:34:41.021Z,21.00
2017-09-26T19:37:09.261Z,21.55
2017-09-26T19:39:37.577Z,20.15
2017-09-26T19:42:06.016Z,19.40
2017-09-26T19:44:34.251Z,18.37
2017-09-26T19:47:02.544Z,19.17
2017-09-26T19:49:33.608Z,21.30
2017-09-26T19:52:03.030Z,23.05
2017-09-26T19:54:32.286Z,21.27
2017-09-26T19:57:01.430Z,22.45
2017-09-26T19:59:29.688Z,20.27
2017-09-26T20:01:58.103Z,20.65
2017-09-26T20:04:26.418Z,21.45
2017-09-26T20:06:55.396Z,22.80
2017-09-26T20:09:23.649Z,21.85
2017-09-26T20:11:51.988Z,20.52
2017-09-26T20:14:20.611Z,19.92
2017-09-26T20:16:48.947Z,21.15
2017-09-26T20:19:17.219Z,21.67
2017-09-26T20:21:45.519Z,23.52
2017-09-26T20:24:13.897Z,22.30
2017-09-26T20:26:42.283Z,22.50
2017-09-26T20:29:10.538Z,22.45
2017-09-26T20:31:38.816Z,21.27
2017-09-26T20:34:07.101Z,23.20
2017-09-26T20:36:35.399Z,21.95
2017-09-26T20:39:03.625Z,20.92
2017-09-26T20:41:31.892Z,22.65
2017-09-26T20:44:00.134Z,21.35
2017-09-26T20:46:28.390Z,22.05
2017-09-26T20:49:05.482Z,21.42
2017-09-26T20:51:33.721Z,21.00
2017-09-26T20:54:01.955Z,21.37
2017-09-26T20:56:32.075Z,22.35
2017-09-26T20:59:00.277Z,23.10
2017-09-26T21:01:28.590Z,21.15
2017-09-26T21:03:56.870Z,23.00
2017-09-26T21:06:25.129Z,20.45
2017-09-26T21:08:53.480Z,22.40
2017-09-26T21:11:22.113Z,20.80
2017-09-26T21:13:50.436Z,22.33
2017-09-26T21:16:18.655Z,22.65
2017-09-26T21:18:47.228Z,21.92
2017-09-26T21:21:15.438Z,23.58
2017-09-26T21:23:43.648Z,24.30
2017-09-26T21:26:11.936Z,21.30
2017-09-26T21:28:40.204Z,21.08
2017-09-26T21:31:08.484Z,22.48
2017-09-26T21:33:37.480Z,22.35
2017-09-26T21:36:06.485Z,23.42
2017-09-26T21:38:34.715Z,21.85
2017-09-26T21:41:04.430Z,21.42
2017-09-26T21:46:07.567Z,23.12
2017-09-26T21:48:35.796Z,23.00
2017-09-26T21:51:05.601Z,23.00
2017-09-26T21:53:34.851Z,23.15
2017-09-26T21:56:03.226Z,24.05
2017-09-26T21:58:31.481Z,25.48
2017-09-26T22:01:00.771Z,24.60
2017-09-26T22:03:29.058Z,24.17
2017-09-26T22:05:57.277Z,23.50
2017-09-26T22:08:25.515Z,24.60
2017-09-26T22:10:53.752Z,22.60
2017-09-26T22:13:22.067Z,23.98
2017-09-26T22:15:50.300Z,25.05
2017-09-26T22:18:18.544Z,22.40
2017-09-26T22:20:46.800Z,22.85
2017-09-26T22:23:15.031Z,22.60
2017-09-26T22:25:44.147Z,23.50
2017-09-26T22:28:12.389Z,23.75
2017-09-26T22:30:40.626Z,24.30
2017-09-26T22:33:08.877Z,25.27
2017-09-26T22:35:37.528Z,24.65
2017-09-26T22:38:06.615Z,24.63
2017-09-26T22:40:35.657Z,23.50
2017-09-26T22:43:03.933Z,24.98
2017-09-26T22:45:32.205Z,22.10
2017-09-26T22:48:00.485Z,25.67
2017-09-26T22:50:28.852Z,24.45
2017-09-26T22:52:57.393Z,25.12
2017-09-26T22:55:25.757Z,22.65
2017-09-26T22:57:54.322Z,24.60
2017-09-26T23:00:23.430Z,26.12
2017-09-26T23:02:52.898Z,25.48
2017-09-26T23:05:21.856Z,23.10
2017-09-26T23:07:50.167Z,23.27
2017-09-26T23:10:20.188Z,23.50
2017-09-26T23:12:48.658Z,24.00
2017-09-26T23:15:16.995Z,23.90
2017-09-26T23:17:45.303Z,24.08
2017-09-26T23:20:14.034Z,24.90
2017-09-26T23:22:43.226Z,24.73
2017-09-26T23:25:12.555Z,23.98
2017-09-26T23:27:40.940Z,23.80
2017-09-26T23:30:10.245Z,24.23
2017-09-26T23:32:39.215Z,24.83
2017-09-26T23:35:07.532Z,24.30
2017-09-26T23:37:35.898Z,23.98
2017-09-26T23:40:05.066Z,25.08
2017-09-26T23:42:33.395Z,25.10
2017-09-26T23:45:01.700Z,23.35
2017-09-26T23:47:33.021Z,23.55
2017-09-26T23:50:01.332Z,26.30
2017-09-26T23:52:30.488Z,24.08
2017-09-26T23:55:00.052Z,25.33
2017-09-26T23:57:28.452Z,24.45
2017-09-26T23:59:56.741Z,25.00
